Almond, New York
Current Conditions -  °F | °C
As of 3:54 PM on Saturday 22 Nov 2014 (Local Time) from KDSV Reporting Station
Overcast Overcast  
Wind Chill:   Ceiling: 1800
Heat Index:   Visibility: 10mi
Dew Point:   Wind: 8mph
Humidity: 76%   Direction: 120°ESE
Pressure: 30.04"   Gusts: NA
Location:  42.32°N, 77.74°W
Report Text: KDSV 222054Z AUTO 12007KT 10SM OVC018 06/02 A3004 RMK AO2 SLP188 T00560017 56012
Loading
Personal Weather Stations






























Interactive Weather Map New forecast layout! Learn more

10-Day Weather Forecast

Advertisements
Track Severe Weather on mobile